sensor_id;sensor_type;location;lat;lon;timestamp;P1;durP1;ratioP1;P2;durP2;ratioP2
27977;SDS011;15314;49.248;6.968;2023-01-30T00:00:38;40.65;;;29.10;;
27977;SDS011;15314;49.248;6.968;2023-01-30T00:01:38;39.58;;;28.75;;
27977;SDS011;15314;49.248;6.968;2023-01-30T00:02:40;46.05;;;30.38;;
27977;SDS011;15314;49.248;6.968;2023-01-30T00:03:40;40.78;;;29.00;;
27977;SDS011;15314;49.248;6.968;2023-01-30T00:04:41;42.33;;;31.00;;
27977;SDS011;15314;49.248;6.968;2023-01-30T00:05:41;39.88;;;28.73;;
27977;SDS011;15314;49.248;6.968;2023-01-30T00:06:43;39.95;;;29.02;;
27977;SDS011;15314;49.248;6.968;2023-01-30T00:07:43;44.10;;;30.17;;
27977;SDS011;15314;49.248;6.968;2023-01-30T00:08:46;40.30;;;28.88;;
27977;SDS011;15314;49.248;6.968;2023-01-30T00:09:46;43.20;;;30.85;;
27977;SDS011;15314;49.248;6.968;2023-01-30T00:10:47;43.28;;;30.33;;
27977;SDS011;15314;49.248;6.968;2023-01-30T00:11:47;44.80;;;31.33;;
27977;SDS011;15314;49.248;6.968;2023-01-30T00:12:48;41.55;;;29.75;;
27977;SDS011;15314;49.248;6.968;2023-01-30T00:13:49;43.22;;;30.50;;
27977;SDS011;15314;49.248;6.968;2023-01-30T00:14:50;38.85;;;29.42;;
27977;SDS011;15314;49.248;6.968;2023-01-30T00:15:50;41.22;;;29.48;;
27977;SDS011;15314;49.248;6.968;2023-01-30T00:16:51;45.72;;;30.15;;
27977;SDS011;15314;49.248;6.968;2023-01-30T00:17:52;41.53;;;29.48;;
27977;SDS011;15314;49.248;6.968;2023-01-30T00:18:52;44.50;;;31.70;;
27977;SDS011;15314;49.248;6.968;2023-01-30T00:19:53;45.47;;;30.58;;
27977;SDS011;15314;49.248;6.968;2023-01-30T00:20:56;44.72;;;32.92;;
27977;SDS011;15314;49.248;6.968;2023-01-30T00:21:58;42.08;;;29.38;;
27977;SDS011;15314;49.248;6.968;2023-01-30T00:22:59;44.35;;;29.85;;
27977;SDS011;15314;49.248;6.968;2023-01-30T00:23:59;42.08;;;29.83;;
27977;SDS011;15314;49.248;6.968;2023-01-30T00:25:00;45.25;;;30.75;;
27977;SDS011;15314;49.248;6.968;2023-01-30T00:26:01;45.35;;;31.25;;
27977;SDS011;15314;49.248;6.968;2023-01-30T00:27:01;44.50;;;30.50;;
27977;SDS011;15314;49.248;6.968;2023-01-30T00:28:02;43.08;;;29.40;;
27977;SDS011;15314;49.248;6.968;2023-01-30T00:29:03;48.78;;;32.35;;
27977;SDS011;15314;49.248;6.968;2023-01-30T00:30:03;43.67;;;30.35;;
27977;SDS011;15314;49.248;6.968;2023-01-30T00:31:06;42.17;;;30.80;;
27977;SDS011;15314;49.248;6.968;2023-01-30T00:32:07;41.63;;;28.80;;
27977;SDS011;15314;49.248;6.968;2023-01-30T00:33:08;43.17;;;29.88;;
27977;SDS011;15314;49.248;6.968;2023-01-30T00:34:09;43.47;;;29.73;;
27977;SDS011;15314;49.248;6.968;2023-01-30T00:35:10;41.42;;;29.10;;
27977;SDS011;15314;49.248;6.968;2023-01-30T00:36:11;43.28;;;29.90;;
27977;SDS011;15314;49.248;6.968;2023-01-30T00:37:11;46.40;;;32.72;;
27977;SDS011;15314;49.248;6.968;2023-01-30T00:38:13;44.15;;;31.52;;
27977;SDS011;15314;49.248;6.968;2023-01-30T00:39:14;44.08;;;30.48;;
27977;SDS011;15314;49.248;6.968;2023-01-30T00:40:15;44.03;;;30.30;;
27977;SDS011;15314;49.248;6.968;2023-01-30T00:41:15;44.78;;;31.55;;
27977;SDS011;15314;49.248;6.968;2023-01-30T00:42:17;44.78;;;30.40;;
27977;SDS011;15314;49.248;6.968;2023-01-30T00:43:37;42.53;;;29.77;;
27977;SDS011;15314;49.248;6.968;2023-01-30T00:44:56;43.70;;;30.45;;
27977;SDS011;15314;49.248;6.968;2023-01-30T00:46:23;44.85;;;31.90;;
27977;SDS011;15314;49.248;6.968;2023-01-30T00:47:51;47.42;;;32.90;;
27977;SDS011;15314;49.248;6.968;2023-01-30T00:48:52;45.00;;;31.88;;
27977;SDS011;15314;49.248;6.968;2023-01-30T00:49:52;47.33;;;32.50;;
27977;SDS011;15314;49.248;6.968;2023-01-30T00:50:53;45.58;;;32.08;;
27977;SDS011;15314;49.248;6.968;2023-01-30T00:51:54;53.97;;;33.30;;
27977;SDS011;15314;49.248;6.968;2023-01-30T00:52:54;48.00;;;31.40;;
27977;SDS011;15314;49.248;6.968;2023-01-30T00:53:55;49.88;;;32.83;;
27977;SDS011;15314;49.248;6.968;2023-01-30T00:54:56;51.10;;;31.67;;
27977;SDS011;15314;49.248;6.968;2023-01-30T00:55:56;52.15;;;33.03;;
27977;SDS011;15314;49.248;6.968;2023-01-30T00:56:57;51.28;;;34.72;;
27977;SDS011;15314;49.248;6.968;2023-01-30T00:57:58;48.55;;;33.25;;
27977;SDS011;15314;49.248;6.968;2023-01-30T00:58:58;50.60;;;33.22;;
27977;SDS011;15314;49.248;6.968;2023-01-30T00:59:59;47.92;;;32.85;;
27977;SDS011;15314;49.248;6.968;2023-01-30T01:00:59;49.00;;;32.17;;
27977;SDS011;15314;49.248;6.968;2023-01-30T01:02:00;51.35;;;32.45;;
27977;SDS011;15314;49.248;6.968;2023-01-30T01:03:01;48.78;;;32.35;;
27977;SDS011;15314;49.248;6.968;2023-01-30T01:04:01;47.75;;;31.25;;
27977;SDS011;15314;49.248;6.968;2023-01-30T01:05:02;47.95;;;30.73;;
27977;SDS011;15314;49.248;6.968;2023-01-30T01:06:03;47.65;;;31.33;;
27977;SDS011;15314;49.248;6.968;2023-01-30T01:07:04;47.63;;;31.75;;
27977;SDS011;15314;49.248;6.968;2023-01-30T01:08:04;46.53;;;29.65;;
27977;SDS011;15314;49.248;6.968;2023-01-30T01:09:06;47.42;;;32.80;;
27977;SDS011;15314;49.248;6.968;2023-01-30T01:10:06;49.63;;;31.73;;
27977;SDS011;15314;49.248;6.968;2023-01-30T01:11:08;46.83;;;31.83;;
27977;SDS011;15314;49.248;6.968;2023-01-30T01:12:08;48.47;;;32.92;;
27977;SDS011;15314;49.248;6.968;2023-01-30T01:13:09;46.67;;;30.77;;
27977;SDS011;15314;49.248;6.968;2023-01-30T01:14:10;49.08;;;31.75;;
27977;SDS011;15314;49.248;6.968;2023-01-30T01:15:11;50.40;;;32.55;;
27977;SDS011;15314;49.248;6.968;2023-01-30T01:16:12;49.38;;;34.08;;
27977;SDS011;15314;49.248;6.968;2023-01-30T01:17:13;52.55;;;34.08;;
27977;SDS011;15314;49.248;6.968;2023-01-30T01:18:13;55.05;;;35.03;;
27977;SDS011;15314;49.248;6.968;2023-01-30T01:19:14;47.95;;;32.58;;
27977;SDS011;15314;49.248;6.968;2023-01-30T01:20:15;53.45;;;33.67;;
27977;SDS011;15314;49.248;6.968;2023-01-30T01:21:20;47.88;;;31.90;;
27977;SDS011;15314;49.248;6.968;2023-01-30T01:22:22;54.90;;;33.15;;
27977;SDS011;15314;49.248;6.968;2023-01-30T01:23:22;51.67;;;34.05;;
27977;SDS011;15314;49.248;6.968;2023-01-30T01:24:23;54.05;;;32.85;;
27977;SDS011;15314;49.248;6.968;2023-01-30T01:25:24;51.20;;;33.83;;
27977;SDS011;15314;49.248;6.968;2023-01-30T01:26:25;48.72;;;31.77;;
27977;SDS011;15314;49.248;6.968;2023-01-30T01:27:26;48.67;;;32.28;;
27977;SDS011;15314;49.248;6.968;2023-01-30T01:28:27;53.00;;;32.55;;
27977;SDS011;15314;49.248;6.968;2023-01-30T01:29:28;49.03;;;33.55;;
27977;SDS011;15314;49.248;6.968;2023-01-30T01:30:29;53.30;;;31.65;;
27977;SDS011;15314;49.248;6.968;2023-01-30T01:31:29;51.13;;;33.58;;
27977;SDS011;15314;49.248;6.968;2023-01-30T01:32:30;44.80;;;29.23;;
27977;SDS011;15314;49.248;6.968;2023-01-30T01:33:31;50.75;;;32.22;;
27977;SDS011;15314;49.248;6.968;2023-01-30T01:34:31;50.53;;;33.00;;
27977;SDS011;15314;49.248;6.968;2023-01-30T01:35:32;52.47;;;32.50;;
27977;SDS011;15314;49.248;6.968;2023-01-30T01:36:33;49.05;;;32.25;;
27977;SDS011;15314;49.248;6.968;2023-01-30T01:37:33;45.58;;;30.75;;
27977;SDS011;15314;49.248;6.968;2023-01-30T01:38:34;52.00;;;33.55;;
27977;SDS011;15314;49.248;6.968;2023-01-30T01:39:35;50.00;;;33.30;;
27977;SDS011;15314;49.248;6.968;2023-01-30T01:40:54;49.53;;;32.25;;
27977;SDS011;15314;49.248;6.968;2023-01-30T01:42:06;50.92;;;33.17;;
27977;SDS011;15314;49.248;6.968;2023-01-30T01:43:22;51.08;;;32.05;;
27977;SDS011;15314;49.248;6.968;2023-01-30T01:44:24;50.38;;;32.13;;
27977;SDS011;15314;49.248;6.968;2023-01-30T01:45:24;50.83;;;32.35;;
27977;SDS011;15314;49.248;6.968;2023-01-30T01:46:29;52.78;;;34.33;;
27977;SDS011;15314;49.248;6.968;2023-01-30T01:48:46;50.50;;;33.53;;
27977;SDS011;15314;49.248;6.968;2023-01-30T01:49:50;44.55;;;31.05;;
27977;SDS011;15314;49.248;6.968;2023-01-30T01:51:02;49.47;;;33.03;;
27977;SDS011;15314;49.248;6.968;2023-01-30T01:52:06;50.38;;;33.05;;
27977;SDS011;15314;49.248;6.968;2023-01-30T01:53:10;51.67;;;33.42;;
27977;SDS011;15314;49.248;6.968;2023-01-30T01:54:35;48.17;;;33.70;;
27977;SDS011;15314;49.248;6.968;2023-01-30T01:55:55;50.92;;;33.42;;
27977;SDS011;15314;49.248;6.968;2023-01-30T01:56:59;51.35;;;34.92;;
27977;SDS011;15314;49.248;6.968;2023-01-30T01:58:08;55.50;;;35.38;;
27977;SDS011;15314;49.248;6.968;2023-01-30T01:59:27;56.55;;;36.13;;
27977;SDS011;15314;49.248;6.968;2023-01-30T02:00:31;55.33;;;35.65;;
27977;SDS011;15314;49.248;6.968;2023-01-30T02:01:32;53.83;;;35.67;;
27977;SDS011;15314;49.248;6.968;2023-01-30T02:02:33;56.33;;;36.92;;
27977;SDS011;15314;49.248;6.968;2023-01-30T02:03:35;50.25;;;34.00;;
27977;SDS011;15314;49.248;6.968;2023-01-30T02:04:41;50.45;;;31.92;;
27977;SDS011;15314;49.248;6.968;2023-01-30T02:06:02;49.80;;;32.00;;
27977;SDS011;15314;49.248;6.968;2023-01-30T02:07:04;52.63;;;34.95;;
27977;SDS011;15314;49.248;6.968;2023-01-30T02:08:09;52.67;;;35.80;;
27977;SDS011;15314;49.248;6.968;2023-01-30T02:09:14;53.05;;;35.53;;
27977;SDS011;15314;49.248;6.968;2023-01-30T02:10:24;48.92;;;33.53;;
27977;SDS011;15314;49.248;6.968;2023-01-30T02:11:45;48.30;;;32.58;;
27977;SDS011;15314;49.248;6.968;2023-01-30T02:14:52;49.60;;;34.03;;
27977;SDS011;15314;49.248;6.968;2023-01-30T02:15:56;47.58;;;33.22;;
27977;SDS011;15314;49.248;6.968;2023-01-30T02:16:59;51.85;;;33.55;;
27977;SDS011;15314;49.248;6.968;2023-01-30T02:17:59;47.63;;;31.67;;
27977;SDS011;15314;49.248;6.968;2023-01-30T02:19:00;50.78;;;35.85;;
27977;SDS011;15314;49.248;6.968;2023-01-30T02:20:07;47.70;;;34.35;;
27977;SDS011;15314;49.248;6.968;2023-01-30T02:21:33;51.38;;;34.45;;
27977;SDS011;15314;49.248;6.968;2023-01-30T02:24:20;49.38;;;33.55;;
27977;SDS011;15314;49.248;6.968;2023-01-30T02:29:06;53.80;;;35.17;;
27977;SDS011;15314;49.248;6.968;2023-01-30T02:46:27;46.95;;;30.88;;
27977;SDS011;15314;49.248;6.968;2023-01-30T02:47:50;46.08;;;32.05;;
27977;SDS011;15314;49.248;6.968;2023-01-30T02:48:56;48.33;;;33.13;;
27977;SDS011;15314;49.248;6.968;2023-01-30T02:50:09;47.15;;;33.30;;
27977;SDS011;15314;49.248;6.968;2023-01-30T02:51:24;43.50;;;31.50;;
27977;SDS011;15314;49.248;6.968;2023-01-30T02:52:33;51.10;;;34.30;;
27977;SDS011;15314;49.248;6.968;2023-01-30T02:53:35;50.10;;;32.08;;
27977;SDS011;15314;49.248;6.968;2023-01-30T02:54:36;46.05;;;30.95;;
27977;SDS011;15314;49.248;6.968;2023-01-30T02:55:38;46.28;;;31.98;;
27977;SDS011;15314;49.248;6.968;2023-01-30T02:57:45;46.33;;;30.55;;
27977;SDS011;15314;49.248;6.968;2023-01-30T02:58:52;46.72;;;30.38;;
27977;SDS011;15314;49.248;6.968;2023-01-30T03:00:00;51.10;;;32.90;;
27977;SDS011;15314;49.248;6.968;2023-01-30T03:01:11;46.90;;;29.83;;
27977;SDS011;15314;49.248;6.968;2023-01-30T03:03:58;46.78;;;31.20;;
27977;SDS011;15314;49.248;6.968;2023-01-30T03:07:30;49.15;;;31.17;;
27977;SDS011;15314;49.248;6.968;2023-01-30T03:11:21;50.47;;;33.60;;
27977;SDS011;15314;49.248;6.968;2023-01-30T03:12:30;52.17;;;33.97;;
27977;SDS011;15314;49.248;6.968;2023-01-30T03:14:11;53.15;;;34.10;;
27977;SDS011;15314;49.248;6.968;2023-01-30T03:15:33;53.67;;;33.80;;
27977;SDS011;15314;49.248;6.968;2023-01-30T03:16:38;52.72;;;34.47;;
27977;SDS011;15314;49.248;6.968;2023-01-30T03:17:41;53.10;;;35.70;;
27977;SDS011;15314;49.248;6.968;2023-01-30T03:18:45;52.38;;;33.08;;
27977;SDS011;15314;49.248;6.968;2023-01-30T03:19:47;56.28;;;35.83;;
27977;SDS011;15314;49.248;6.968;2023-01-30T03:20:48;54.20;;;34.05;;
27977;SDS011;15314;49.248;6.968;2023-01-30T03:21:50;56.13;;;34.88;;
27977;SDS011;15314;49.248;6.968;2023-01-30T03:22:52;52.35;;;33.13;;
27977;SDS011;15314;49.248;6.968;2023-01-30T03:23:53;52.72;;;33.50;;
27977;SDS011;15314;49.248;6.968;2023-01-30T03:24:54;54.13;;;34.30;;
27977;SDS011;15314;49.248;6.968;2023-01-30T03:25:54;50.83;;;32.75;;
27977;SDS011;15314;49.248;6.968;2023-01-30T03:26:57;52.47;;;35.58;;
27977;SDS011;15314;49.248;6.968;2023-01-30T03:28:02;54.65;;;33.80;;
27977;SDS011;15314;49.248;6.968;2023-01-30T03:29:08;53.58;;;34.15;;
27977;SDS011;15314;49.248;6.968;2023-01-30T03:30:08;53.75;;;34.88;;
27977;SDS011;15314;49.248;6.968;2023-01-30T03:31:10;53.25;;;34.13;;
27977;SDS011;15314;49.248;6.968;2023-01-30T03:32:10;51.63;;;34.05;;
27977;SDS011;15314;49.248;6.968;2023-01-30T03:33:11;58.75;;;33.88;;
27977;SDS011;15314;49.248;6.968;2023-01-30T03:34:12;56.58;;;34.38;;
27977;SDS011;15314;49.248;6.968;2023-01-30T03:35:13;53.60;;;34.42;;
27977;SDS011;15314;49.248;6.968;2023-01-30T03:36:16;52.35;;;34.17;;
27977;SDS011;15314;49.248;6.968;2023-01-30T03:37:17;51.80;;;32.80;;
27977;SDS011;15314;49.248;6.968;2023-01-30T03:38:18;57.30;;;35.03;;
27977;SDS011;15314;49.248;6.968;2023-01-30T03:39:18;52.10;;;32.50;;
27977;SDS011;15314;49.248;6.968;2023-01-30T03:40:19;53.05;;;35.22;;
27977;SDS011;15314;49.248;6.968;2023-01-30T03:41:20;59.75;;;35.60;;
27977;SDS011;15314;49.248;6.968;2023-01-30T03:42:20;55.95;;;34.78;;
27977;SDS011;15314;49.248;6.968;2023-01-30T03:43:21;56.40;;;34.00;;
27977;SDS011;15314;49.248;6.968;2023-01-30T03:44:21;52.85;;;32.72;;
27977;SDS011;15314;49.248;6.968;2023-01-30T03:45:22;55.22;;;35.22;;
27977;SDS011;15314;49.248;6.968;2023-01-30T03:46:23;52.38;;;30.15;;
27977;SDS011;15314;49.248;6.968;2023-01-30T03:47:23;54.17;;;31.85;;
27977;SDS011;15314;49.248;6.968;2023-01-30T03:48:24;60.08;;;33.88;;
27977;SDS011;15314;49.248;6.968;2023-01-30T03:49:24;54.17;;;32.65;;
27977;SDS011;15314;49.248;6.968;2023-01-30T03:50:25;63.13;;;36.38;;
27977;SDS011;15314;49.248;6.968;2023-01-30T03:51:26;55.17;;;35.05;;
27977;SDS011;15314;49.248;6.968;2023-01-30T03:52:26;57.60;;;34.92;;
27977;SDS011;15314;49.248;6.968;2023-01-30T03:53:27;60.00;;;36.53;;
27977;SDS011;15314;49.248;6.968;2023-01-30T03:54:28;50.28;;;32.55;;
27977;SDS011;15314;49.248;6.968;2023-01-30T03:55:28;59.78;;;34.10;;
27977;SDS011;15314;49.248;6.968;2023-01-30T03:56:29;56.67;;;34.20;;
27977;SDS011;15314;49.248;6.968;2023-01-30T03:57:30;54.22;;;32.33;;
27977;SDS011;15314;49.248;6.968;2023-01-30T03:58:30;50.78;;;32.53;;
27977;SDS011;15314;49.248;6.968;2023-01-30T03:59:31;55.28;;;33.53;;
27977;SDS011;15314;49.248;6.968;2023-01-30T04:00:32;56.97;;;34.80;;
27977;SDS011;15314;49.248;6.968;2023-01-30T04:01:32;54.63;;;33.92;;
27977;SDS011;15314;49.248;6.968;2023-01-30T04:02:33;57.92;;;34.72;;
27977;SDS011;15314;49.248;6.968;2023-01-30T04:03:33;58.42;;;36.38;;
27977;SDS011;15314;49.248;6.968;2023-01-30T04:04:34;58.10;;;33.70;;
27977;SDS011;15314;49.248;6.968;2023-01-30T04:05:35;49.97;;;31.65;;
27977;SDS011;15314;49.248;6.968;2023-01-30T04:06:35;57.97;;;34.92;;
27977;SDS011;15314;49.248;6.968;2023-01-30T04:07:36;63.85;;;34.95;;
27977;SDS011;15314;49.248;6.968;2023-01-30T04:08:36;58.70;;;34.25;;
27977;SDS011;15314;49.248;6.968;2023-01-30T04:09:37;57.78;;;33.42;;
27977;SDS011;15314;49.248;6.968;2023-01-30T04:10:38;54.22;;;34.00;;
27977;SDS011;15314;49.248;6.968;2023-01-30T04:11:38;52.00;;;32.67;;
27977;SDS011;15314;49.248;6.968;2023-01-30T04:12:39;47.72;;;31.02;;
27977;SDS011;15314;49.248;6.968;2023-01-30T04:13:41;55.50;;;32.50;;
27977;SDS011;15314;49.248;6.968;2023-01-30T04:14:42;57.95;;;33.45;;
27977;SDS011;15314;49.248;6.968;2023-01-30T04:15:43;51.65;;;32.05;;
27977;SDS011;15314;49.248;6.968;2023-01-30T04:16:44;52.90;;;32.25;;
27977;SDS011;15314;49.248;6.968;2023-01-30T04:17:44;50.65;;;32.38;;
27977;SDS011;15314;49.248;6.968;2023-01-30T04:18:46;50.15;;;31.23;;
27977;SDS011;15314;49.248;6.968;2023-01-30T04:19:47;51.65;;;31.70;;
27977;SDS011;15314;49.248;6.968;2023-01-30T04:20:48;64.70;;;37.67;;
27977;SDS011;15314;49.248;6.968;2023-01-30T04:21:49;56.25;;;32.92;;
27977;SDS011;15314;49.248;6.968;2023-01-30T04:22:49;56.85;;;32.65;;
27977;SDS011;15314;49.248;6.968;2023-01-30T04:23:50;56.70;;;32.90;;
27977;SDS011;15314;49.248;6.968;2023-01-30T04:24:50;55.72;;;32.47;;
27977;SDS011;15314;49.248;6.968;2023-01-30T04:25:51;54.95;;;34.22;;
27977;SDS011;15314;49.248;6.968;2023-01-30T04:26:52;53.88;;;32.63;;
27977;SDS011;15314;49.248;6.968;2023-01-30T04:27:52;51.78;;;32.63;;
27977;SDS011;15314;49.248;6.968;2023-01-30T04:28:53;47.85;;;32.05;;
27977;SDS011;15314;49.248;6.968;2023-01-30T04:29:53;50.33;;;31.08;;
27977;SDS011;15314;49.248;6.968;2023-01-30T04:30:54;48.92;;;31.75;;
27977;SDS011;15314;49.248;6.968;2023-01-30T04:31:54;54.03;;;33.72;;
27977;SDS011;15314;49.248;6.968;2023-01-30T04:32:55;54.35;;;33.78;;
27977;SDS011;15314;49.248;6.968;2023-01-30T04:33:56;53.05;;;33.15;;
27977;SDS011;15314;49.248;6.968;2023-01-30T04:34:56;54.90;;;34.47;;
27977;SDS011;15314;49.248;6.968;2023-01-30T04:35:58;55.97;;;33.42;;
27977;SDS011;15314;49.248;6.968;2023-01-30T04:36:59;57.72;;;34.20;;
27977;SDS011;15314;49.248;6.968;2023-01-30T04:37:59;55.78;;;34.42;;
27977;SDS011;15314;49.248;6.968;2023-01-30T04:39:00;59.00;;;34.80;;
27977;SDS011;15314;49.248;6.968;2023-01-30T04:40:01;55.20;;;33.90;;
27977;SDS011;15314;49.248;6.968;2023-01-30T04:41:01;52.30;;;33.75;;
27977;SDS011;15314;49.248;6.968;2023-01-30T04:42:03;53.50;;;34.38;;
27977;SDS011;15314;49.248;6.968;2023-01-30T04:43:04;49.90;;;31.52;;
27977;SDS011;15314;49.248;6.968;2023-01-30T04:44:04;56.47;;;34.65;;
27977;SDS011;15314;49.248;6.968;2023-01-30T04:45:05;55.53;;;35.55;;
27977;SDS011;15314;49.248;6.968;2023-01-30T04:46:06;51.65;;;33.15;;
27977;SDS011;15314;49.248;6.968;2023-01-30T04:47:07;54.72;;;32.80;;
27977;SDS011;15314;49.248;6.968;2023-01-30T04:48:07;53.35;;;32.95;;
27977;SDS011;15314;49.248;6.968;2023-01-30T04:49:08;56.60;;;34.58;;
27977;SDS011;15314;49.248;6.968;2023-01-30T04:50:09;56.67;;;33.05;;
27977;SDS011;15314;49.248;6.968;2023-01-30T04:51:10;56.50;;;34.58;;
27977;SDS011;15314;49.248;6.968;2023-01-30T04:52:11;52.28;;;32.42;;
27977;SDS011;15314;49.248;6.968;2023-01-30T04:53:11;51.17;;;32.00;;
27977;SDS011;15314;49.248;6.968;2023-01-30T04:54:12;58.00;;;35.17;;
27977;SDS011;15314;49.248;6.968;2023-01-30T04:55:13;54.80;;;32.65;;
27977;SDS011;15314;49.248;6.968;2023-01-30T04:56:14;49.22;;;31.25;;
27977;SDS011;15314;49.248;6.968;2023-01-30T04:57:14;49.75;;;31.15;;
27977;SDS011;15314;49.248;6.968;2023-01-30T04:58:15;48.03;;;29.52;;
27977;SDS011;15314;49.248;6.968;2023-01-30T04:59:18;48.45;;;30.30;;
27977;SDS011;15314;49.248;6.968;2023-01-30T05:00:18;48.42;;;30.08;;
27977;SDS011;15314;49.248;6.968;2023-01-30T05:01:23;52.03;;;32.70;;
27977;SDS011;15314;49.248;6.968;2023-01-30T05:02:28;53.08;;;32.42;;
27977;SDS011;15314;49.248;6.968;2023-01-30T05:03:29;49.47;;;30.85;;
27977;SDS011;15314;49.248;6.968;2023-01-30T05:04:29;51.55;;;31.25;;
27977;SDS011;15314;49.248;6.968;2023-01-30T05:05:30;57.33;;;32.70;;
27977;SDS011;15314;49.248;6.968;2023-01-30T05:06:31;50.35;;;28.75;;
27977;SDS011;15314;49.248;6.968;2023-01-30T05:07:32;45.58;;;30.55;;
27977;SDS011;15314;49.248;6.968;2023-01-30T05:08:35;48.38;;;30.45;;
27977;SDS011;15314;49.248;6.968;2023-01-30T05:09:36;48.42;;;29.98;;
27977;SDS011;15314;49.248;6.968;2023-01-30T05:10:36;47.53;;;30.27;;
27977;SDS011;15314;49.248;6.968;2023-01-30T05:11:37;49.42;;;33.10;;
27977;SDS011;15314;49.248;6.968;2023-01-30T05:12:37;47.05;;;29.83;;
27977;SDS011;15314;49.248;6.968;2023-01-30T05:13:38;48.60;;;31.92;;
27977;SDS011;15314;49.248;6.968;2023-01-30T05:14:39;47.25;;;31.55;;
27977;SDS011;15314;49.248;6.968;2023-01-30T05:15:40;50.72;;;31.13;;
27977;SDS011;15314;49.248;6.968;2023-01-30T05:16:40;43.20;;;29.75;;
27977;SDS011;15314;49.248;6.968;2023-01-30T05:17:41;46.95;;;31.15;;
27977;SDS011;15314;49.248;6.968;2023-01-30T05:18:42;43.42;;;28.23;;
27977;SDS011;15314;49.248;6.968;2023-01-30T05:19:44;51.85;;;30.45;;
27977;SDS011;15314;49.248;6.968;2023-01-30T05:20:44;41.38;;;29.33;;
27977;SDS011;15314;49.248;6.968;2023-01-30T05:21:45;45.28;;;28.15;;
27977;SDS011;15314;49.248;6.968;2023-01-30T05:22:45;41.10;;;28.15;;
27977;SDS011;15314;49.248;6.968;2023-01-30T05:23:46;41.13;;;26.58;;
27977;SDS011;15314;49.248;6.968;2023-01-30T05:24:47;42.88;;;28.60;;
27977;SDS011;15314;49.248;6.968;2023-01-30T05:25:47;46.80;;;29.83;;
27977;SDS011;15314;49.248;6.968;2023-01-30T05:26:48;45.58;;;28.77;;
27977;SDS011;15314;49.248;6.968;2023-01-30T05:27:48;42.58;;;28.55;;
27977;SDS011;15314;49.248;6.968;2023-01-30T05:28:52;41.80;;;27.38;;
27977;SDS011;15314;49.248;6.968;2023-01-30T05:29:54;42.53;;;28.48;;
27977;SDS011;15314;49.248;6.968;2023-01-30T05:31:08;45.92;;;29.25;;
27977;SDS011;15314;49.248;6.968;2023-01-30T05:32:13;40.35;;;27.85;;
27977;SDS011;15314;49.248;6.968;2023-01-30T05:33:15;40.03;;;29.05;;
27977;SDS011;15314;49.248;6.968;2023-01-30T05:34:15;39.88;;;26.48;;
27977;SDS011;15314;49.248;6.968;2023-01-30T05:35:16;38.92;;;27.40;;
27977;SDS011;15314;49.248;6.968;2023-01-30T05:36:17;39.85;;;27.83;;
27977;SDS011;15314;49.248;6.968;2023-01-30T05:37:19;42.55;;;29.02;;
27977;SDS011;15314;49.248;6.968;2023-01-30T05:38:21;43.22;;;29.48;;
27977;SDS011;15314;49.248;6.968;2023-01-30T05:39:23;39.80;;;27.95;;
27977;SDS011;15314;49.248;6.968;2023-01-30T05:40:23;39.67;;;28.05;;
27977;SDS011;15314;49.248;6.968;2023-01-30T05:41:24;39.15;;;27.20;;
27977;SDS011;15314;49.248;6.968;2023-01-30T05:42:24;37.92;;;26.85;;
27977;SDS011;15314;49.248;6.968;2023-01-30T05:43:25;46.40;;;29.70;;
27977;SDS011;15314;49.248;6.968;2023-01-30T05:44:26;42.95;;;28.23;;
27977;SDS011;15314;49.248;6.968;2023-01-30T05:45:27;39.10;;;26.00;;
27977;SDS011;15314;49.248;6.968;2023-01-30T05:46:28;37.80;;;26.15;;
27977;SDS011;15314;49.248;6.968;2023-01-30T05:47:28;40.97;;;27.05;;
27977;SDS011;15314;49.248;6.968;2023-01-30T05:48:29;43.05;;;28.38;;
27977;SDS011;15314;49.248;6.968;2023-01-30T05:49:29;44.30;;;28.45;;
27977;SDS011;15314;49.248;6.968;2023-01-30T05:50:30;43.72;;;28.33;;
27977;SDS011;15314;49.248;6.968;2023-01-30T05:51:31;42.20;;;28.60;;
27977;SDS011;15314;49.248;6.968;2023-01-30T05:52:32;42.13;;;28.55;;
27977;SDS011;15314;49.248;6.968;2023-01-30T05:53:32;39.95;;;28.52;;
27977;SDS011;15314;49.248;6.968;2023-01-30T05:54:34;45.08;;;28.90;;
27977;SDS011;15314;49.248;6.968;2023-01-30T05:55:34;39.60;;;26.90;;
27977;SDS011;15314;49.248;6.968;2023-01-30T05:56:35;41.40;;;27.92;;
27977;SDS011;15314;49.248;6.968;2023-01-30T05:57:35;39.95;;;27.67;;
27977;SDS011;15314;49.248;6.968;2023-01-30T05:58:36;40.70;;;26.90;;
27977;SDS011;15314;49.248;6.968;2023-01-30T05:59:36;42.50;;;28.77;;
27977;SDS011;15314;49.248;6.968;2023-01-30T06:00:37;39.55;;;27.85;;
27977;SDS011;15314;49.248;6.968;2023-01-30T06:01:38;41.08;;;27.35;;
27977;SDS011;15314;49.248;6.968;2023-01-30T06:02:38;42.72;;;29.17;;
27977;SDS011;15314;49.248;6.968;2023-01-30T06:03:39;42.13;;;27.90;;
27977;SDS011;15314;49.248;6.968;2023-01-30T06:04:40;40.28;;;27.90;;
27977;SDS011;15314;49.248;6.968;2023-01-30T06:05:40;40.60;;;27.83;;
27977;SDS011;15314;49.248;6.968;2023-01-30T06:06:41;41.92;;;28.45;;
27977;SDS011;15314;49.248;6.968;2023-01-30T06:07:41;40.22;;;28.23;;
27977;SDS011;15314;49.248;6.968;2023-01-30T06:08:43;46.38;;;29.63;;
27977;SDS011;15314;49.248;6.968;2023-01-30T06:09:44;39.67;;;27.42;;
27977;SDS011;15314;49.248;6.968;2023-01-30T06:10:44;41.92;;;27.92;;
27977;SDS011;15314;49.248;6.968;2023-01-30T06:11:45;39.95;;;27.92;;
27977;SDS011;15314;49.248;6.968;2023-01-30T06:12:46;38.38;;;26.55;;
27977;SDS011;15314;49.248;6.968;2023-01-30T06:13:46;40.15;;;28.75;;
27977;SDS011;15314;49.248;6.968;2023-01-30T06:14:47;37.33;;;26.70;;
27977;SDS011;15314;49.248;6.968;2023-01-30T06:15:48;39.25;;;26.67;;
27977;SDS011;15314;49.248;6.968;2023-01-30T06:16:48;36.92;;;26.40;;
27977;SDS011;15314;49.248;6.968;2023-01-30T06:17:49;39.28;;;26.58;;
27977;SDS011;15314;49.248;6.968;2023-01-30T06:18:49;38.03;;;27.90;;
27977;SDS011;15314;49.248;6.968;2023-01-30T06:19:50;40.45;;;27.48;;
27977;SDS011;15314;49.248;6.968;2023-01-30T06:20:51;38.78;;;27.77;;
27977;SDS011;15314;49.248;6.968;2023-01-30T06:21:52;43.67;;;29.55;;
27977;SDS011;15314;49.248;6.968;2023-01-30T06:22:52;46.85;;;29.50;;
27977;SDS011;15314;49.248;6.968;2023-01-30T06:23:53;46.03;;;27.27;;
27977;SDS011;15314;49.248;6.968;2023-01-30T06:24:54;41.30;;;27.77;;
27977;SDS011;15314;49.248;6.968;2023-01-30T06:25:54;41.55;;;27.27;;
27977;SDS011;15314;49.248;6.968;2023-01-30T06:26:55;42.80;;;29.30;;
27977;SDS011;15314;49.248;6.968;2023-01-30T06:27:57;41.30;;;27.52;;
27977;SDS011;15314;49.248;6.968;2023-01-30T06:28:58;38.78;;;27.83;;
27977;SDS011;15314;49.248;6.968;2023-01-30T06:29:59;40.17;;;27.58;;
27977;SDS011;15314;49.248;6.968;2023-01-30T06:30:59;40.88;;;28.50;;
27977;SDS011;15314;49.248;6.968;2023-01-30T06:32:00;43.85;;;29.20;;
27977;SDS011;15314;49.248;6.968;2023-01-30T06:33:01;41.35;;;28.70;;
27977;SDS011;15314;49.248;6.968;2023-01-30T06:34:02;42.00;;;28.73;;
27977;SDS011;15314;49.248;6.968;2023-01-30T06:35:03;39.17;;;27.75;;
27977;SDS011;15314;49.248;6.968;2023-01-30T06:36:04;41.65;;;27.88;;
27977;SDS011;15314;49.248;6.968;2023-01-30T06:37:04;39.95;;;28.23;;
27977;SDS011;15314;49.248;6.968;2023-01-30T06:38:05;40.08;;;28.50;;